sensor_id;sensor_type;location;lat;lon;timestamp;pressure;altitude;pressure_sealevel;temperature;humidity
48216;BME280;34005;48.844;10.098;2022-07-15T00:00:16;96981.31;;;21.81;36.12
48216;BME280;34005;48.844;10.098;2022-07-15T00:02:44;96985.03;;;21.80;36.41
48216;BME280;34005;48.844;10.098;2022-07-15T00:05:12;96979.44;;;21.81;36.54
48216;BME280;34005;48.844;10.098;2022-07-15T00:07:39;96987.91;;;21.78;36.26
48216;BME280;34005;48.844;10.098;2022-07-15T00:10:08;96991.84;;;21.76;36.38
48216;BME280;34005;48.844;10.098;2022-07-15T00:12:43;96983.81;;;21.71;36.67
48216;BME280;34005;48.844;10.098;2022-07-15T00:15:13;96984.31;;;21.68;36.74
48216;BME280;34005;48.844;10.098;2022-07-15T00:17:41;96976.56;;;21.66;37.10
48216;BME280;34005;48.844;10.098;2022-07-15T00:20:11;96979.00;;;21.68;36.76
48216;BME280;34005;48.844;10.098;2022-07-15T00:22:40;96980.28;;;21.65;36.67
48216;BME280;34005;48.844;10.098;2022-07-15T00:25:09;96981.56;;;21.63;36.85
48216;BME280;34005;48.844;10.098;2022-07-15T00:27:49;96982.84;;;21.60;36.74
48216;BME280;34005;48.844;10.098;2022-07-15T00:30:19;96970.88;;;21.57;37.02
48216;BME280;34005;48.844;10.098;2022-07-15T00:32:47;96972.22;;;21.60;38.58
48216;BME280;34005;48.844;10.098;2022-07-15T00:35:15;96975.94;;;21.59;37.60
48216;BME280;34005;48.844;10.098;2022-07-15T00:37:42;96978.03;;;21.57;36.97
48216;BME280;34005;48.844;10.098;2022-07-15T00:40:10;96976.44;;;21.56;37.57
48216;BME280;34005;48.844;10.098;2022-07-15T00:42:39;96983.00;;;21.53;36.77
48216;BME280;34005;48.844;10.098;2022-07-15T00:45:13;96973.63;;;21.46;36.65
48216;BME280;34005;48.844;10.098;2022-07-15T00:47:44;96982.03;;;21.43;36.72
48216;BME280;34005;48.844;10.098;2022-07-15T00:50:13;96973.06;;;21.44;36.74
48216;BME280;34005;48.844;10.098;2022-07-15T00:52:43;96985.75;;;21.42;36.25
48216;BME280;34005;48.844;10.098;2022-07-15T00:55:13;96980.09;;;21.38;36.34
48216;BME280;34005;48.844;10.098;2022-07-15T00:57:44;96971.56;;;21.36;36.41
48216;BME280;34005;48.844;10.098;2022-07-15T01:00:13;96973.91;;;21.32;36.66
48216;BME280;34005;48.844;10.098;2022-07-15T01:02:43;96971.00;;;21.34;37.78
48216;BME280;34005;48.844;10.098;2022-07-15T01:05:18;96969.34;;;21.28;36.80
48216;BME280;34005;48.844;10.098;2022-07-15T01:07:46;96973.75;;;21.22;36.65
48216;BME280;34005;48.844;10.098;2022-07-15T01:10:16;96977.34;;;21.16;37.21
48216;BME280;34005;48.844;10.098;2022-07-15T01:12:46;96978.78;;;21.07;37.48
48216;BME280;34005;48.844;10.098;2022-07-15T01:15:15;96978.16;;;20.99;37.81
48216;BME280;34005;48.844;10.098;2022-07-15T01:17:45;96968.97;;;20.90;37.49
48216;BME280;34005;48.844;10.098;2022-07-15T01:20:14;96974.97;;;20.86;38.02
48216;BME280;34005;48.844;10.098;2022-07-15T01:22:44;96978.34;;;20.81;38.38
48216;BME280;34005;48.844;10.098;2022-07-15T01:25:11;96970.53;;;20.74;38.74
48216;BME280;34005;48.844;10.098;2022-07-15T01:27:40;96975.97;;;20.68;38.91
48216;BME280;34005;48.844;10.098;2022-07-15T01:30:10;96977.41;;;20.58;38.96
48216;BME280;34005;48.844;10.098;2022-07-15T01:32:38;96975.88;;;20.51;39.13
48216;BME280;34005;48.844;10.098;2022-07-15T01:35:07;96975.94;;;20.39;39.29
48216;BME280;34005;48.844;10.098;2022-07-15T01:37:36;96969.84;;;20.27;39.95
48216;BME280;34005;48.844;10.098;2022-07-15T01:40:07;96970.69;;;20.15;40.21
48216;BME280;34005;48.844;10.098;2022-07-15T01:42:36;96976.38;;;20.07;40.24
48216;BME280;34005;48.844;10.098;2022-07-15T01:45:07;96976.50;;;20.01;40.13
48216;BME280;34005;48.844;10.098;2022-07-15T01:47:41;96982.47;;;19.96;40.46
48216;BME280;34005;48.844;10.098;2022-07-15T01:50:09;96975.47;;;19.90;40.44
48216;BME280;34005;48.844;10.098;2022-07-15T01:52:36;96972.94;;;19.83;40.62
48216;BME280;34005;48.844;10.098;2022-07-15T01:55:08;96989.50;;;19.79;40.81
48216;BME280;34005;48.844;10.098;2022-07-15T01:57:36;96979.38;;;19.75;40.77
48216;BME280;34005;48.844;10.098;2022-07-15T02:00:05;96979.38;;;19.75;41.14
48216;BME280;34005;48.844;10.098;2022-07-15T02:02:36;96979.47;;;19.81;40.78
48216;BME280;34005;48.844;10.098;2022-07-15T02:05:04;96979.03;;;19.72;40.84
48216;BME280;34005;48.844;10.098;2022-07-15T02:07:32;96982.69;;;19.59;41.43
48216;BME280;34005;48.844;10.098;2022-07-15T02:10:00;96980.81;;;19.48;41.91
48216;BME280;34005;48.844;10.098;2022-07-15T02:12:29;96987.06;;;19.42;42.19
48216;BME280;34005;48.844;10.098;2022-07-15T02:14:57;96985.75;;;19.32;42.26
48216;BME280;34005;48.844;10.098;2022-07-15T02:17:24;96980.81;;;19.24;42.20
48216;BME280;34005;48.844;10.098;2022-07-15T02:19:52;96984.00;;;19.14;42.70
48216;BME280;34005;48.844;10.098;2022-07-15T02:22:20;96980.88;;;19.06;42.57
48216;BME280;34005;48.844;10.098;2022-07-15T02:24:47;96981.34;;;19.03;42.76
48216;BME280;34005;48.844;10.098;2022-07-15T02:27:15;96980.19;;;18.99;42.78
48216;BME280;34005;48.844;10.098;2022-07-15T02:29:44;96972.13;;;18.93;43.41
48216;BME280;34005;48.844;10.098;2022-07-15T02:32:12;96977.47;;;18.87;43.54
48216;BME280;34005;48.844;10.098;2022-07-15T02:34:39;96977.81;;;18.79;43.58
48216;BME280;34005;48.844;10.098;2022-07-15T02:37:07;96981.78;;;18.69;43.73
48216;BME280;34005;48.844;10.098;2022-07-15T02:39:34;96968.88;;;18.61;43.62
48216;BME280;34005;48.844;10.098;2022-07-15T02:42:02;96981.59;;;18.52;43.86
48216;BME280;34005;48.844;10.098;2022-07-15T02:44:30;96969.94;;;18.42;44.17
48216;BME280;34005;48.844;10.098;2022-07-15T02:46:59;96986.44;;;18.37;44.39
48216;BME280;34005;48.844;10.098;2022-07-15T02:49:26;96982.34;;;18.41;44.91
48216;BME280;34005;48.844;10.098;2022-07-15T02:51:54;96987.75;;;18.46;44.23
48216;BME280;34005;48.844;10.098;2022-07-15T02:54:22;96986.13;;;18.45;44.12
48216;BME280;34005;48.844;10.098;2022-07-15T02:56:49;96987.88;;;18.51;45.78
48216;BME280;34005;48.844;10.098;2022-07-15T02:59:17;96980.78;;;18.52;44.23
48216;BME280;34005;48.844;10.098;2022-07-15T03:01:45;96990.41;;;18.46;44.04
48216;BME280;34005;48.844;10.098;2022-07-15T03:04:14;96995.97;;;18.38;44.44
48216;BME280;34005;48.844;10.098;2022-07-15T03:06:42;96993.19;;;18.33;44.36
48216;BME280;34005;48.844;10.098;2022-07-15T03:09:10;96993.63;;;18.30;44.44
48216;BME280;34005;48.844;10.098;2022-07-15T03:11:37;96994.28;;;18.25;44.53
48216;BME280;34005;48.844;10.098;2022-07-15T03:14:05;97003.69;;;18.21;44.72
48216;BME280;34005;48.844;10.098;2022-07-15T03:16:33;97006.97;;;18.17;44.87
48216;BME280;34005;48.844;10.098;2022-07-15T03:19:01;97006.09;;;18.23;46.55
48216;BME280;34005;48.844;10.098;2022-07-15T03:21:30;97004.63;;;18.27;45.20
48216;BME280;34005;48.844;10.098;2022-07-15T03:23:57;97010.97;;;18.26;44.87
48216;BME280;34005;48.844;10.098;2022-07-15T03:26:25;97006.56;;;18.20;44.88
48216;BME280;34005;48.844;10.098;2022-07-15T03:28:53;97012.13;;;18.11;45.07
48216;BME280;34005;48.844;10.098;2022-07-15T03:31:21;97006.13;;;18.04;45.47
48216;BME280;34005;48.844;10.098;2022-07-15T03:33:48;97015.91;;;17.97;45.51
48216;BME280;34005;48.844;10.098;2022-07-15T03:36:19;97017.22;;;17.88;45.91
48216;BME280;34005;48.844;10.098;2022-07-15T03:38:48;97014.44;;;17.83;45.98
48216;BME280;34005;48.844;10.098;2022-07-15T03:41:18;97020.09;;;17.80;46.07
48216;BME280;34005;48.844;10.098;2022-07-15T03:43:46;97014.69;;;17.75;46.02
48216;BME280;34005;48.844;10.098;2022-07-15T03:46:14;97014.53;;;17.69;46.31
48216;BME280;34005;48.844;10.098;2022-07-15T03:48:42;97017.00;;;17.64;46.31
48216;BME280;34005;48.844;10.098;2022-07-15T03:51:09;97021.31;;;17.59;46.42
48216;BME280;34005;48.844;10.098;2022-07-15T03:53:37;97017.50;;;17.55;47.10
48216;BME280;34005;48.844;10.098;2022-07-15T03:56:07;97014.91;;;17.48;47.06
48216;BME280;34005;48.844;10.098;2022-07-15T03:58:36;97010.28;;;17.43;46.75
48216;BME280;34005;48.844;10.098;2022-07-15T04:01:03;97006.25;;;17.41;46.72
48216;BME280;34005;48.844;10.098;2022-07-15T04:03:31;97014.56;;;17.38;46.68
48216;BME280;34005;48.844;10.098;2022-07-15T04:05:59;97010.75;;;17.34;46.60
48216;BME280;34005;48.844;10.098;2022-07-15T04:08:27;97019.69;;;17.33;46.70
48216;BME280;34005;48.844;10.098;2022-07-15T04:10:55;97003.88;;;17.33;46.67
48216;BME280;34005;48.844;10.098;2022-07-15T04:13:24;97013.97;;;17.36;46.92
48216;BME280;34005;48.844;10.098;2022-07-15T04:15:52;97009.31;;;17.38;47.18
48216;BME280;34005;48.844;10.098;2022-07-15T04:18:19;97021.47;;;17.39;47.03
48216;BME280;34005;48.844;10.098;2022-07-15T04:20:47;97017.16;;;17.44;48.58
48216;BME280;34005;48.844;10.098;2022-07-15T04:23:16;97020.78;;;17.50;47.29
48216;BME280;34005;48.844;10.098;2022-07-15T04:25:43;97024.44;;;17.49;47.27
48216;BME280;34005;48.844;10.098;2022-07-15T04:28:12;97026.72;;;17.45;47.27
48216;BME280;34005;48.844;10.098;2022-07-15T04:30:41;97024.88;;;17.46;47.34
48216;BME280;34005;48.844;10.098;2022-07-15T04:33:08;97019.59;;;17.46;47.21
48216;BME280;34005;48.844;10.098;2022-07-15T04:35:36;97018.78;;;17.45;47.19
48216;BME280;34005;48.844;10.098;2022-07-15T04:38:04;97020.03;;;17.43;47.26
48216;BME280;34005;48.844;10.098;2022-07-15T04:40:33;97026.31;;;17.42;47.38
48216;BME280;34005;48.844;10.098;2022-07-15T04:43:01;97032.63;;;17.41;47.34
48216;BME280;34005;48.844;10.098;2022-07-15T04:45:29;97025.72;;;17.40;47.41
48216;BME280;34005;48.844;10.098;2022-07-15T04:47:58;97032.22;;;17.37;47.45
48216;BME280;34005;48.844;10.098;2022-07-15T04:50:26;97024.53;;;17.36;47.73
48216;BME280;34005;48.844;10.098;2022-07-15T04:53:12;97025.56;;;17.35;47.75
48216;BME280;34005;48.844;10.098;2022-07-15T04:55:39;97027.41;;;17.34;47.91
48216;BME280;34005;48.844;10.098;2022-07-15T04:58:07;97027.59;;;17.33;47.90
48216;BME280;34005;48.844;10.098;2022-07-15T05:00:34;97032.44;;;17.36;47.98
48216;BME280;34005;48.844;10.098;2022-07-15T05:03:03;97038.31;;;17.38;47.94
48216;BME280;34005;48.844;10.098;2022-07-15T05:05:32;97036.88;;;17.42;47.95
48216;BME280;34005;48.844;10.098;2022-07-15T05:07:59;97035.84;;;17.43;47.63
48216;BME280;34005;48.844;10.098;2022-07-15T05:10:33;97031.75;;;17.47;47.75
48216;BME280;34005;48.844;10.098;2022-07-15T05:13:01;97033.75;;;17.52;47.79
48216;BME280;34005;48.844;10.098;2022-07-15T05:15:29;97028.03;;;17.55;48.16
48216;BME280;34005;48.844;10.098;2022-07-15T05:17:56;97027.84;;;17.56;48.28
48216;BME280;34005;48.844;10.098;2022-07-15T05:20:26;97027.41;;;17.59;48.11
48216;BME280;34005;48.844;10.098;2022-07-15T06:11:52;97050.41;;;18.58;47.08
48216;BME280;34005;48.844;10.098;2022-07-15T06:14:20;97062.59;;;18.59;46.86
48216;BME280;34005;48.844;10.098;2022-07-15T06:16:47;97049.75;;;18.62;46.91
48216;BME280;34005;48.844;10.098;2022-07-15T06:19:15;97050.13;;;18.66;46.80
48216;BME280;34005;48.844;10.098;2022-07-15T06:21:42;97050.50;;;18.69;46.83
48216;BME280;34005;48.844;10.098;2022-07-15T06:24:10;97054.06;;;18.75;46.74
48216;BME280;34005;48.844;10.098;2022-07-15T07:17:56;97048.88;;;20.30;43.01
48216;BME280;34005;48.844;10.098;2022-07-15T07:20:24;97044.25;;;20.37;42.94
48216;BME280;34005;48.844;10.098;2022-07-15T07:22:52;97044.91;;;20.44;42.30
48216;BME280;34005;48.844;10.098;2022-07-15T07:25:19;97047.22;;;20.52;41.83
48216;BME280;34005;48.844;10.098;2022-07-15T07:30:23;97042.03;;;20.69;40.78
48216;BME280;34005;48.844;10.098;2022-07-15T07:32:51;97039.81;;;20.78;39.31
48216;BME280;34005;48.844;10.098;2022-07-15T07:35:20;97050.03;;;20.86;38.66
48216;BME280;34005;48.844;10.098;2022-07-15T07:37:47;97041.94;;;20.93;38.25
48216;BME280;34005;48.844;10.098;2022-07-15T07:40:15;97044.19;;;21.01;37.79
48216;BME280;34005;48.844;10.098;2022-07-15T07:42:43;97040.59;;;21.07;37.79
48216;BME280;34005;48.844;10.098;2022-07-15T07:45:11;97044.72;;;21.15;37.80
48216;BME280;34005;48.844;10.098;2022-07-15T07:47:39;97044.34;;;21.23;37.31
48216;BME280;34005;48.844;10.098;2022-07-15T07:50:08;97042.34;;;21.30;37.24
48216;BME280;34005;48.844;10.098;2022-07-15T07:52:38;97044.59;;;21.38;36.96
48216;BME280;34005;48.844;10.098;2022-07-15T07:55:06;97041.56;;;21.47;37.01
48216;BME280;34005;48.844;10.098;2022-07-15T07:57:35;97039.56;;;21.54;36.89
48216;BME280;34005;48.844;10.098;2022-07-15T08:00:04;97041.25;;;21.60;36.44
48216;BME280;34005;48.844;10.098;2022-07-15T08:02:32;97041.34;;;21.65;36.97
48216;BME280;34005;48.844;10.098;2022-07-15T08:04:59;97035.06;;;21.71;36.61
48216;BME280;34005;48.844;10.098;2022-07-15T08:07:27;97025.31;;;21.77;37.10
48216;BME280;34005;48.844;10.098;2022-07-15T08:09:57;97029.66;;;21.83;37.39
48216;BME280;34005;48.844;10.098;2022-07-15T08:12:24;97026.59;;;21.91;37.70
48216;BME280;34005;48.844;10.098;2022-07-15T08:14:52;97025.38;;;21.99;37.09
48216;BME280;34005;48.844;10.098;2022-07-15T08:17:21;97033.44;;;22.04;36.64
48216;BME280;34005;48.844;10.098;2022-07-15T08:19:49;97030.84;;;22.09;36.41
48216;BME280;34005;48.844;10.098;2022-07-15T08:22:17;97033.31;;;22.16;36.64
48216;BME280;34005;48.844;10.098;2022-07-15T08:24:45;97033.16;;;22.23;36.42
48216;BME280;34005;48.844;10.098;2022-07-15T08:27:13;97027.66;;;22.29;36.29
48216;BME280;34005;48.844;10.098;2022-07-15T08:29:41;97024.84;;;22.36;36.21
48216;BME280;34005;48.844;10.098;2022-07-15T08:32:09;97019.88;;;22.45;36.33
48216;BME280;34005;48.844;10.098;2022-07-15T08:34:36;97021.31;;;22.52;36.11
48216;BME280;34005;48.844;10.098;2022-07-15T08:37:07;97021.94;;;22.59;36.02
48216;BME280;34005;48.844;10.098;2022-07-15T08:39:35;97027.84;;;22.67;35.98
48216;BME280;34005;48.844;10.098;2022-07-15T08:42:04;97023.13;;;22.74;35.59
48216;BME280;34005;48.844;10.098;2022-07-15T08:44:35;97017.09;;;22.78;35.10
48216;BME280;34005;48.844;10.098;2022-07-15T08:47:04;97017.94;;;22.84;34.95
48216;BME280;34005;48.844;10.098;2022-07-15T08:49:50;97019.59;;;22.90;34.56
48216;BME280;34005;48.844;10.098;2022-07-15T08:52:23;97022.06;;;22.97;35.23
48216;BME280;34005;48.844;10.098;2022-07-15T08:54:51;97017.88;;;23.01;34.90
48216;BME280;34005;48.844;10.098;2022-07-15T08:57:19;97022.50;;;23.11;34.90
48216;BME280;34005;48.844;10.098;2022-07-15T08:59:48;97019.91;;;23.16;34.86
48216;BME280;34005;48.844;10.098;2022-07-15T09:02:18;97018.63;;;23.23;34.96
48216;BME280;34005;48.844;10.098;2022-07-15T09:05:16;97008.31;;;23.32;35.26
48216;BME280;34005;48.844;10.098;2022-07-15T09:07:53;97016.41;;;23.42;34.75
48216;BME280;34005;48.844;10.098;2022-07-15T09:10:22;97016.50;;;23.53;35.07
48216;BME280;34005;48.844;10.098;2022-07-15T09:12:50;97015.19;;;23.60;34.15
48216;BME280;34005;48.844;10.098;2022-07-15T09:15:30;97016.59;;;23.68;33.38
48216;BME280;34005;48.844;10.098;2022-07-15T09:18:06;97016.63;;;23.73;33.38
48216;BME280;34005;48.844;10.098;2022-07-15T09:20:34;97018.31;;;23.79;32.79
48216;BME280;34005;48.844;10.098;2022-07-15T09:23:03;97022.63;;;23.85;33.55
48216;BME280;34005;48.844;10.098;2022-07-15T09:25:32;97014.66;;;23.91;32.74
48216;BME280;34005;48.844;10.098;2022-07-15T09:28:02;97019.97;;;23.91;33.41
48216;BME280;34005;48.844;10.098;2022-07-15T09:30:34;97018.94;;;23.97;32.90
48216;BME280;34005;48.844;10.098;2022-07-15T09:33:22;97022.19;;;24.04;32.76
48216;BME280;34005;48.844;10.098;2022-07-15T09:36:10;97028.34;;;24.10;32.31
48216;BME280;34005;48.844;10.098;2022-07-15T09:38:42;97030.25;;;24.14;32.24
48216;BME280;34005;48.844;10.098;2022-07-15T09:41:13;97035.84;;;24.18;32.13
48216;BME280;34005;48.844;10.098;2022-07-15T09:43:49;97034.28;;;24.22;32.11
48216;BME280;34005;48.844;10.098;2022-07-15T09:46:20;97031.34;;;24.23;31.32
48216;BME280;34005;48.844;10.098;2022-07-15T09:48:49;97026.03;;;24.29;32.08
48216;BME280;34005;48.844;10.098;2022-07-15T09:51:18;97031.41;;;24.34;31.69
48216;BME280;34005;48.844;10.098;2022-07-15T09:53:46;97031.97;;;24.41;31.78
48216;BME280;34005;48.844;10.098;2022-07-15T09:56:16;97032.78;;;24.46;32.03
48216;BME280;34005;48.844;10.098;2022-07-15T09:58:47;97039.50;;;24.49;31.28
48216;BME280;34005;48.844;10.098;2022-07-15T10:01:15;97035.22;;;24.48;31.07
48216;BME280;34005;48.844;10.098;2022-07-15T10:03:44;97034.72;;;24.51;31.43
48216;BME280;34005;48.844;10.098;2022-07-15T10:06:14;97041.41;;;24.59;31.29
48216;BME280;34005;48.844;10.098;2022-07-15T10:08:46;97038.50;;;24.65;30.81
48216;BME280;34005;48.844;10.098;2022-07-15T10:11:14;97030.25;;;24.72;31.26
48216;BME280;34005;48.844;10.098;2022-07-15T10:16:52;97030.84;;;24.84;30.67
48216;BME280;34005;48.844;10.098;2022-07-15T10:19:33;97027.13;;;24.91;30.12
48216;BME280;34005;48.844;10.098;2022-07-15T10:22:10;97027.13;;;24.96;30.10
48216;BME280;34005;48.844;10.098;2022-07-15T10:24:56;97033.25;;;25.01;30.28
48216;BME280;34005;48.844;10.098;2022-07-15T10:27:44;97029.81;;;25.11;30.10
48216;BME280;34005;48.844;10.098;2022-07-15T10:30:18;97027.69;;;25.18;29.75
48216;BME280;34005;48.844;10.098;2022-07-15T10:33:09;97024.00;;;25.24;29.49
48216;BME280;34005;48.844;10.098;2022-07-15T10:35:47;97019.47;;;25.30;29.04
48216;BME280;34005;48.844;10.098;2022-07-15T10:38:26;97016.78;;;25.35;29.38
48216;BME280;34005;48.844;10.098;2022-07-15T10:40:59;97013.31;;;25.40;29.31
48216;BME280;34005;48.844;10.098;2022-07-15T10:43:54;97021.31;;;25.45;29.82
48216;BME280;34005;48.844;10.098;2022-07-15T10:46:25;97018.94;;;25.43;29.12
48216;BME280;34005;48.844;10.098;2022-07-15T10:49:29;97007.97;;;25.45;29.25
48216;BME280;34005;48.844;10.098;2022-07-15T10:52:15;97009.88;;;25.49;29.46
48216;BME280;34005;48.844;10.098;2022-07-15T10:54:45;97013.03;;;25.52;28.86
48216;BME280;34005;48.844;10.098;2022-07-15T10:57:14;97001.03;;;25.54;29.09
48216;BME280;34005;48.844;10.098;2022-07-15T10:59:49;96999.69;;;25.57;28.79
48216;BME280;34005;48.844;10.098;2022-07-15T11:02:19;97002.13;;;25.58;28.71
48216;BME280;34005;48.844;10.098;2022-07-15T11:04:49;96990.06;;;25.56;28.73
48216;BME280;34005;48.844;10.098;2022-07-15T11:07:28;96998.63;;;25.58;29.20
48216;BME280;34005;48.844;10.098;2022-07-15T11:10:17;96986.34;;;25.57;29.08
48216;BME280;34005;48.844;10.098;2022-07-15T11:13:04;96996.47;;;25.60;29.11
48216;BME280;34005;48.844;10.098;2022-07-15T11:15:33;96984.72;;;25.66;29.22
48216;BME280;34005;48.844;10.098;2022-07-15T11:18:01;96990.06;;;25.71;28.88
48216;BME280;34005;48.844;10.098;2022-07-15T11:20:36;96983.09;;;25.75;28.81
48216;BME280;34005;48.844;10.098;2022-07-15T11:23:06;96980.44;;;25.80;29.15
48216;BME280;34005;48.844;10.098;2022-07-15T11:25:36;96980.41;;;25.85;29.00
48216;BME280;34005;48.844;10.098;2022-07-15T11:28:07;96972.41;;;25.90;28.67
48216;BME280;34005;48.844;10.098;2022-07-15T11:30:38;96978.03;;;25.89;28.13
48216;BME280;34005;48.844;10.098;2022-07-15T11:33:08;96974.28;;;25.85;28.24
48216;BME280;34005;48.844;10.098;2022-07-15T11:35:48;96968.66;;;25.86;28.91
48216;BME280;34005;48.844;10.098;2022-07-15T11:38:20;96974.00;;;25.86;28.63
48216;BME280;34005;48.844;10.098;2022-07-15T11:40:52;96972.13;;;25.87;28.76
48216;BME280;34005;48.844;10.098;2022-07-15T11:43:38;96961.44;;;25.87;28.68
48216;BME280;34005;48.844;10.098;2022-07-15T11:46:24;96961.72;;;25.90;28.87
48216;BME280;34005;48.844;10.098;2022-07-15T11:48:52;96961.72;;;25.96;28.84
48216;BME280;34005;48.844;10.098;2022-07-15T11:51:24;96951.28;;;25.99;28.07
48216;BME280;34005;48.844;10.098;2022-07-15T11:53:55;96970.50;;;26.01;27.81
48216;BME280;34005;48.844;10.098;2022-07-15T11:56:24;96964.38;;;26.01;27.91
48216;BME280;34005;48.844;10.098;2022-07-15T11:58:54;96957.69;;;26.03;27.86
48216;BME280;34005;48.844;10.098;2022-07-15T12:01:24;96961.16;;;26.04;28.09
48216;BME280;34005;48.844;10.098;2022-07-15T12:03:53;96956.31;;;26.06;28.01
48216;BME280;34005;48.844;10.098;2022-07-15T12:06:23;96954.19;;;26.08;28.05
48216;BME280;34005;48.844;10.098;2022-07-15T12:08:53;96956.59;;;26.09;28.04
48216;BME280;34005;48.844;10.098;2022-07-15T12:11:25;96958.47;;;26.09;27.77
48216;BME280;34005;48.844;10.098;2022-07-15T12:13:55;96956.88;;;26.13;28.15
48216;BME280;34005;48.844;10.098;2022-07-15T12:16:27;96948.00;;;26.18;28.30
48216;BME280;34005;48.844;10.098;2022-07-15T12:18:57;96949.88;;;26.22;27.99
48216;BME280;34005;48.844;10.098;2022-07-15T12:21:25;96953.06;;;26.24;27.30
48216;BME280;34005;48.844;10.098;2022-07-15T12:23:59;96949.88;;;26.22;27.25
48216;BME280;34005;48.844;10.098;2022-07-15T12:26:29;96945.06;;;26.19;27.90
48216;BME280;34005;48.844;10.098;2022-07-15T12:28:58;96949.34;;;26.20;28.24
48216;BME280;34005;48.844;10.098;2022-07-15T12:31:27;96934.63;;;26.23;28.19
48216;BME280;34005;48.844;10.098;2022-07-15T12:33:56;96937.03;;;26.24;27.79
48216;BME280;34005;48.844;10.098;2022-07-15T12:36:25;96947.16;;;26.27;28.35
48216;BME280;34005;48.844;10.098;2022-07-15T12:39:05;96950.41;;;26.24;27.97
48216;BME280;34005;48.844;10.098;2022-07-15T12:41:35;96944.25;;;26.19;27.57
48216;BME280;34005;48.844;10.098;2022-07-15T12:44:04;96947.75;;;26.14;28.22
48216;BME280;34005;48.844;10.098;2022-07-15T12:46:52;96946.16;;;26.13;28.28
48216;BME280;34005;48.844;10.098;2022-07-15T12:49:55;96939.19;;;26.12;27.63
48216;BME280;34005;48.844;10.098;2022-07-15T12:52:31;96947.78;;;26.09;28.03
48216;BME280;34005;48.844;10.098;2022-07-15T12:55:10;96946.47;;;26.06;27.85
48216;BME280;34005;48.844;10.098;2022-07-15T12:57:39;96950.97;;;26.06;27.90
48216;BME280;34005;48.844;10.098;2022-07-15T13:00:11;96947.25;;;26.07;27.64
48216;BME280;34005;48.844;10.098;2022-07-15T13:03:01;96940.56;;;26.09;27.79
48216;BME280;34005;48.844;10.098;2022-07-15T13:05:32;96947.78;;;26.09;27.56
48216;BME280;34005;48.844;10.098;2022-07-15T13:08:00;96942.97;;;26.11;27.76
48216;BME280;34005;48.844;10.098;2022-07-15T13:10:29;96956.88;;;26.13;27.47
48216;BME280;34005;48.844;10.098;2022-07-15T13:12:59;96938.94;;;26.14;27.27
48216;BME280;34005;48.844;10.098;2022-07-15T13:15:26;96933.84;;;26.12;26.81
48216;BME280;34005;48.844;10.098;2022-07-15T13:17:54;96927.97;;;26.15;27.72
48216;BME280;34005;48.844;10.098;2022-07-15T13:20:22;96942.13;;;26.16;27.04
48216;BME280;34005;48.844;10.098;2022-07-15T13:22:50;96938.69;;;26.15;26.90
48216;BME280;34005;48.844;10.098;2022-07-15T13:25:18;96940.81;;;26.13;26.71
48216;BME280;34005;48.844;10.098;2022-07-15T13:27:46;96932.28;;;26.11;27.22
48216;BME280;34005;48.844;10.098;2022-07-15T13:30:43;96941.34;;;26.10;27.53
48216;BME280;34005;48.844;10.098;2022-07-15T13:34:07;96931.97;;;26.13;27.80
48216;BME280;34005;48.844;10.098;2022-07-15T13:41:09;96929.31;;;26.18;26.78
48216;BME280;34005;48.844;10.098;2022-07-15T13:49:23;96915.38;;;26.21;27.25
48216;BME280;34005;48.844;10.098;2022-07-15T13:52:15;96911.34;;;26.23;27.32
48216;BME280;34005;48.844;10.098;2022-07-15T15:16:16;96903.13;;;26.09;27.94
48216;BME280;34005;48.844;10.098;2022-07-15T15:19:14;96893.78;;;26.07;27.85
48216;BME280;34005;48.844;10.098;2022-07-15T15:22:06;96899.66;;;26.04;27.96
48216;BME280;34005;48.844;10.098;2022-07-15T15:24:42;96894.31;;;26.04;28.30
48216;BME280;34005;48.844;10.098;2022-07-15T15:30:22;96889.78;;;25.99;28.34
48216;BME280;34005;48.844;10.098;2022-07-15T15:57:57;96886.34;;;25.83;28.53
48216;BME280;34005;48.844;10.098;2022-07-15T16:01:02;96882.38;;;25.81;28.54
48216;BME280;34005;48.844;10.098;2022-07-15T16:04:14;96886.66;;;25.77;28.61
48216;BME280;34005;48.844;10.098;2022-07-15T16:06:53;96891.19;;;25.76;28.61
48216;BME280;34005;48.844;10.098;2022-07-15T16:15:07;96884.78;;;25.67;28.62
48216;BME280;34005;48.844;10.098;2022-07-15T16:17:59;96890.69;;;25.64;28.44
48216;BME280;34005;48.844;10.098;2022-07-15T16:20:50;96883.75;;;25.63;28.66
48216;BME280;34005;48.844;10.098;2022-07-15T16:23:26;96874.66;;;25.64;28.57
48216;BME280;34005;48.844;10.098;2022-07-15T16:37:13;96878.13;;;25.64;28.51
48216;BME280;34005;48.844;10.098;2022-07-15T16:48:22;96881.91;;;25.58;28.21
48216;BME280;34005;48.844;10.098;2022-07-15T17:19:50;96887.53;;;25.41;28.94
48216;BME280;34005;48.844;10.098;2022-07-15T18:13:46;96902.75;;;25.00;30.67
48216;BME280;34005;48.844;10.098;2022-07-15T18:16:14;96906.78;;;24.97;30.68
48216;BME280;34005;48.844;10.098;2022-07-15T19:10:14;96935.94;;;24.31;32.29
48216;BME280;34005;48.844;10.098;2022-07-15T19:12:42;96932.19;;;24.26;32.25
48216;BME280;34005;48.844;10.098;2022-07-15T19:15:09;96936.97;;;24.24;32.54
48216;BME280;34005;48.844;10.098;2022-07-15T19:17:37;96938.56;;;24.20;32.94
48216;BME280;34005;48.844;10.098;2022-07-15T19:20:07;96942.84;;;24.16;32.97
48216;BME280;34005;48.844;10.098;2022-07-15T19:22:35;96946.25;;;24.12;33.28
48216;BME280;34005;48.844;10.098;2022-07-15T19:44:41;96987.44;;;23.83;34.79
48216;BME280;34005;48.844;10.098;2022-07-15T19:47:18;96993.25;;;23.80;34.87
48216;BME280;34005;48.844;10.098;2022-07-15T19:49:47;96994.25;;;23.74;34.92
48216;BME280;34005;48.844;10.098;2022-07-15T19:52:17;96994.47;;;23.68;35.17
48216;BME280;34005;48.844;10.098;2022-07-15T19:55:02;96998.44;;;23.60;35.43